sensor_id;sensor_type;location;lat;lon;timestamp;P1;durP1;ratioP1;P2;durP2;ratioP2
75470;SDS011;64051;46.320;48.028;2022-11-06T00:01:05;12.90;;;6.65;;
75470;SDS011;64051;46.320;48.028;2022-11-06T00:03:37;17.13;;;7.28;;
75470;SDS011;64051;46.320;48.028;2022-11-06T00:06:10;14.38;;;6.90;;
75470;SDS011;64051;46.320;48.028;2022-11-06T00:08:59;14.95;;;6.80;;
75470;SDS011;64051;46.320;48.028;2022-11-06T00:11:27;15.68;;;7.97;;
75470;SDS011;64051;46.320;48.028;2022-11-06T00:13:53;18.10;;;7.93;;
75470;SDS011;64051;46.320;48.028;2022-11-06T00:16:19;18.35;;;8.13;;
75470;SDS011;64051;46.320;48.028;2022-11-06T00:18:45;20.00;;;8.80;;
75470;SDS011;64051;46.320;48.028;2022-11-06T00:21:13;18.38;;;8.32;;
75470;SDS011;64051;46.320;48.028;2022-11-06T00:23:41;12.93;;;6.85;;
75470;SDS011;64051;46.320;48.028;2022-11-06T00:26:08;16.50;;;7.25;;
75470;SDS011;64051;46.320;48.028;2022-11-06T00:28:37;14.77;;;6.28;;
75470;SDS011;64051;46.320;48.028;2022-11-06T00:31:05;20.40;;;8.63;;
75470;SDS011;64051;46.320;48.028;2022-11-06T00:33:35;14.98;;;7.20;;
75470;SDS011;64051;46.320;48.028;2022-11-06T00:36:02;13.23;;;6.47;;
75470;SDS011;64051;46.320;48.028;2022-11-06T00:38:32;13.57;;;6.10;;
75470;SDS011;64051;46.320;48.028;2022-11-06T00:41:01;13.18;;;6.70;;
75470;SDS011;64051;46.320;48.028;2022-11-06T00:43:28;14.10;;;6.90;;
75470;SDS011;64051;46.320;48.028;2022-11-06T00:46:01;15.50;;;7.25;;
75470;SDS011;64051;46.320;48.028;2022-11-06T00:50:54;11.70;;;5.47;;
75470;SDS011;64051;46.320;48.028;2022-11-06T00:53:20;11.90;;;5.53;;
75470;SDS011;64051;46.320;48.028;2022-11-06T00:55:47;12.55;;;5.95;;
75470;SDS011;64051;46.320;48.028;2022-11-06T00:58:13;11.02;;;4.82;;
75470;SDS011;64051;46.320;48.028;2022-11-06T01:00:39;11.57;;;5.82;;
75470;SDS011;64051;46.320;48.028;2022-11-06T01:03:05;12.48;;;5.18;;
75470;SDS011;64051;46.320;48.028;2022-11-06T01:05:31;11.95;;;5.50;;
75470;SDS011;64051;46.320;48.028;2022-11-06T01:07:57;10.65;;;5.07;;
75470;SDS011;64051;46.320;48.028;2022-11-06T01:10:25;13.93;;;6.20;;
75470;SDS011;64051;46.320;48.028;2022-11-06T01:12:51;12.65;;;5.88;;
75470;SDS011;64051;46.320;48.028;2022-11-06T01:15:17;13.68;;;5.45;;
75470;SDS011;64051;46.320;48.028;2022-11-06T01:17:43;12.23;;;5.97;;
75470;SDS011;64051;46.320;48.028;2022-11-06T01:20:09;12.20;;;5.47;;
75470;SDS011;64051;46.320;48.028;2022-11-06T01:22:35;14.35;;;6.47;;
75470;SDS011;64051;46.320;48.028;2022-11-06T01:25:01;14.25;;;5.85;;
75470;SDS011;64051;46.320;48.028;2022-11-06T01:27:27;12.98;;;5.90;;
75470;SDS011;64051;46.320;48.028;2022-11-06T01:29:53;13.23;;;6.07;;
75470;SDS011;64051;46.320;48.028;2022-11-06T01:32:21;14.40;;;6.18;;
75470;SDS011;64051;46.320;48.028;2022-11-06T01:34:48;13.05;;;6.03;;
75470;SDS011;64051;46.320;48.028;2022-11-06T01:37:14;12.00;;;5.95;;
75470;SDS011;64051;46.320;48.028;2022-11-06T01:39:40;12.10;;;5.90;;
75470;SDS011;64051;46.320;48.028;2022-11-06T01:42:08;12.48;;;5.72;;
75470;SDS011;64051;46.320;48.028;2022-11-06T01:47:22;10.27;;;4.90;;
75470;SDS011;64051;46.320;48.028;2022-11-06T01:49:51;11.80;;;5.80;;
75470;SDS011;64051;46.320;48.028;2022-11-06T01:52:20;11.10;;;5.40;;
75470;SDS011;64051;46.320;48.028;2022-11-06T01:54:49;12.23;;;5.53;;
75470;SDS011;64051;46.320;48.028;2022-11-06T01:57:17;9.10;;;4.30;;
75470;SDS011;64051;46.320;48.028;2022-11-06T01:59:44;10.95;;;4.93;;
75470;SDS011;64051;46.320;48.028;2022-11-06T02:02:10;13.68;;;6.03;;
75470;SDS011;64051;46.320;48.028;2022-11-06T02:04:45;11.05;;;4.85;;
75470;SDS011;64051;46.320;48.028;2022-11-06T02:07:15;11.73;;;5.32;;
75470;SDS011;64051;46.320;48.028;2022-11-06T02:09:43;11.48;;;4.93;;
75470;SDS011;64051;46.320;48.028;2022-11-06T02:17:45;11.20;;;4.38;;
75470;SDS011;64051;46.320;48.028;2022-11-06T02:23:12;11.27;;;5.10;;
75470;SDS011;64051;46.320;48.028;2022-11-06T02:28:31;11.52;;;5.07;;
75470;SDS011;64051;46.320;48.028;2022-11-06T02:31:02;11.57;;;5.22;;
75470;SDS011;64051;46.320;48.028;2022-11-06T02:33:35;11.93;;;5.20;;
75470;SDS011;64051;46.320;48.028;2022-11-06T02:36:11;11.15;;;5.13;;
75470;SDS011;64051;46.320;48.028;2022-11-06T02:38:43;11.88;;;6.13;;
75470;SDS011;64051;46.320;48.028;2022-11-06T02:41:21;12.95;;;5.78;;
75470;SDS011;64051;46.320;48.028;2022-11-06T02:43:53;10.02;;;4.53;;
75470;SDS011;64051;46.320;48.028;2022-11-06T02:46:29;10.95;;;5.03;;
75470;SDS011;64051;46.320;48.028;2022-11-06T02:49:26;13.93;;;5.88;;
75470;SDS011;64051;46.320;48.028;2022-11-06T02:52:10;18.67;;;5.15;;
75470;SDS011;64051;46.320;48.028;2022-11-06T02:54:42;10.90;;;5.30;;
75470;SDS011;64051;46.320;48.028;2022-11-06T02:57:15;12.93;;;5.93;;
75470;SDS011;64051;46.320;48.028;2022-11-06T03:02:34;13.75;;;5.55;;
75470;SDS011;64051;46.320;48.028;2022-11-06T03:05:10;9.88;;;4.63;;
75470;SDS011;64051;46.320;48.028;2022-11-06T03:10:48;12.37;;;5.77;;
75470;SDS011;64051;46.320;48.028;2022-11-06T03:13:46;13.98;;;6.22;;
75470;SDS011;64051;46.320;48.028;2022-11-06T03:18:57;10.63;;;4.30;;
75470;SDS011;64051;46.320;48.028;2022-11-06T03:24:26;11.90;;;5.43;;
75470;SDS011;64051;46.320;48.028;2022-11-06T03:26:58;12.20;;;5.45;;
75470;SDS011;64051;46.320;48.028;2022-11-06T03:29:36;12.18;;;5.00;;
75470;SDS011;64051;46.320;48.028;2022-11-06T03:34:38;10.05;;;4.95;;
75470;SDS011;64051;46.320;48.028;2022-11-06T03:37:20;10.73;;;4.97;;
75470;SDS011;64051;46.320;48.028;2022-11-06T03:39:52;8.90;;;4.18;;
75470;SDS011;64051;46.320;48.028;2022-11-06T03:42:21;11.18;;;5.22;;
75470;SDS011;64051;46.320;48.028;2022-11-06T03:44:51;12.00;;;5.25;;
75470;SDS011;64051;46.320;48.028;2022-11-06T03:47:24;9.15;;;4.32;;
75470;SDS011;64051;46.320;48.028;2022-11-06T03:49:57;9.73;;;4.30;;
75470;SDS011;64051;46.320;48.028;2022-11-06T03:52:29;8.65;;;4.00;;
75470;SDS011;64051;46.320;48.028;2022-11-06T03:55:04;11.13;;;4.80;;
75470;SDS011;64051;46.320;48.028;2022-11-06T04:00:09;11.95;;;4.60;;
75470;SDS011;64051;46.320;48.028;2022-11-06T04:02:40;10.98;;;5.18;;
75470;SDS011;64051;46.320;48.028;2022-11-06T04:05:12;10.75;;;4.63;;
75470;SDS011;64051;46.320;48.028;2022-11-06T04:07:46;11.57;;;5.43;;
75470;SDS011;64051;46.320;48.028;2022-11-06T04:10:36;10.63;;;4.82;;
75470;SDS011;64051;46.320;48.028;2022-11-06T04:13:24;7.95;;;3.85;;
75470;SDS011;64051;46.320;48.028;2022-11-06T04:16:11;10.27;;;4.45;;
75470;SDS011;64051;46.320;48.028;2022-11-06T04:18:38;11.43;;;5.03;;
75470;SDS011;64051;46.320;48.028;2022-11-06T04:24:09;9.45;;;4.32;;
75470;SDS011;64051;46.320;48.028;2022-11-06T04:38:41;11.00;;;5.30;;
75470;SDS011;64051;46.320;48.028;2022-11-06T04:44:08;7.68;;;3.80;;
75470;SDS011;64051;46.320;48.028;2022-11-06T04:46:51;8.73;;;3.28;;
75470;SDS011;64051;46.320;48.028;2022-11-06T04:49:23;13.13;;;5.30;;
75470;SDS011;64051;46.320;48.028;2022-11-06T04:51:51;9.13;;;4.65;;
75470;SDS011;64051;46.320;48.028;2022-11-06T04:54:21;8.77;;;4.18;;
75470;SDS011;64051;46.320;48.028;2022-11-06T04:56:47;10.70;;;4.60;;
75470;SDS011;64051;46.320;48.028;2022-11-06T04:59:14;11.18;;;5.03;;
75470;SDS011;64051;46.320;48.028;2022-11-06T05:01:41;9.63;;;4.50;;
75470;SDS011;64051;46.320;48.028;2022-11-06T05:04:10;12.88;;;5.07;;
75470;SDS011;64051;46.320;48.028;2022-11-06T05:06:36;9.90;;;4.65;;
75470;SDS011;64051;46.320;48.028;2022-11-06T05:09:02;9.95;;;4.30;;
75470;SDS011;64051;46.320;48.028;2022-11-06T05:11:28;8.48;;;4.25;;
75470;SDS011;64051;46.320;48.028;2022-11-06T05:13:54;11.53;;;5.37;;
75470;SDS011;64051;46.320;48.028;2022-11-06T05:16:20;10.25;;;4.60;;
75470;SDS011;64051;46.320;48.028;2022-11-06T05:18:46;8.75;;;4.38;;
75470;SDS011;64051;46.320;48.028;2022-11-06T05:21:12;10.18;;;5.03;;
75470;SDS011;64051;46.320;48.028;2022-11-06T05:23:56;8.10;;;3.67;;
75470;SDS011;64051;46.320;48.028;2022-11-06T05:26:22;10.00;;;4.03;;
75470;SDS011;64051;46.320;48.028;2022-11-06T05:28:48;7.78;;;4.13;;
75470;SDS011;64051;46.320;48.028;2022-11-06T05:31:16;8.95;;;3.95;;
75470;SDS011;64051;46.320;48.028;2022-11-06T05:33:42;10.88;;;4.00;;
75470;SDS011;64051;46.320;48.028;2022-11-06T05:36:09;8.80;;;4.15;;
75470;SDS011;64051;46.320;48.028;2022-11-06T05:38:35;9.15;;;4.30;;
75470;SDS011;64051;46.320;48.028;2022-11-06T05:41:04;7.18;;;3.75;;
75470;SDS011;64051;46.320;48.028;2022-11-06T05:43:30;8.60;;;4.03;;
75470;SDS011;64051;46.320;48.028;2022-11-06T05:45:56;9.18;;;3.92;;
75470;SDS011;64051;46.320;48.028;2022-11-06T05:48:22;8.30;;;3.97;;
75470;SDS011;64051;46.320;48.028;2022-11-06T05:50:51;8.40;;;4.05;;
75470;SDS011;64051;46.320;48.028;2022-11-06T05:53:17;9.63;;;4.40;;
75470;SDS011;64051;46.320;48.028;2022-11-06T05:55:46;8.55;;;4.20;;
75470;SDS011;64051;46.320;48.028;2022-11-06T05:58:13;9.02;;;4.20;;
75470;SDS011;64051;46.320;48.028;2022-11-06T06:00:39;9.45;;;4.07;;
75470;SDS011;64051;46.320;48.028;2022-11-06T06:03:08;10.23;;;4.88;;
75470;SDS011;64051;46.320;48.028;2022-11-06T06:05:34;8.60;;;3.97;;
75470;SDS011;64051;46.320;48.028;2022-11-06T06:08:03;9.73;;;4.80;;
75470;SDS011;64051;46.320;48.028;2022-11-06T06:10:30;9.75;;;4.28;;
75470;SDS011;64051;46.320;48.028;2022-11-06T06:12:56;9.00;;;4.32;;
75470;SDS011;64051;46.320;48.028;2022-11-06T06:15:22;10.55;;;5.00;;
75470;SDS011;64051;46.320;48.028;2022-11-06T06:17:48;8.63;;;4.13;;
75470;SDS011;64051;46.320;48.028;2022-11-06T06:22:40;9.50;;;3.88;;
75470;SDS011;64051;46.320;48.028;2022-11-06T06:25:06;7.50;;;3.97;;
75470;SDS011;64051;46.320;48.028;2022-11-06T06:27:32;8.00;;;3.80;;
75470;SDS011;64051;46.320;48.028;2022-11-06T06:29:58;8.68;;;3.75;;
75470;SDS011;64051;46.320;48.028;2022-11-06T06:49:25;9.95;;;4.88;;
75470;SDS011;64051;46.320;48.028;2022-11-06T06:51:54;9.40;;;4.68;;
75470;SDS011;64051;46.320;48.028;2022-11-06T06:54:20;9.73;;;4.95;;
75470;SDS011;64051;46.320;48.028;2022-11-06T06:56:48;11.05;;;5.20;;
75470;SDS011;64051;46.320;48.028;2022-11-06T06:59:15;9.65;;;4.82;;
75470;SDS011;64051;46.320;48.028;2022-11-06T07:01:43;9.20;;;4.28;;
75470;SDS011;64051;46.320;48.028;2022-11-06T07:04:10;9.50;;;4.97;;
75470;SDS011;64051;46.320;48.028;2022-11-06T07:06:36;9.38;;;4.85;;
75470;SDS011;64051;46.320;48.028;2022-11-06T07:09:01;9.18;;;4.57;;
75470;SDS011;64051;46.320;48.028;2022-11-06T07:11:27;10.43;;;5.40;;
75470;SDS011;64051;46.320;48.028;2022-11-06T07:13:54;8.85;;;4.57;;
75470;SDS011;64051;46.320;48.028;2022-11-06T07:16:19;8.70;;;4.60;;
75470;SDS011;64051;46.320;48.028;2022-11-06T07:18:46;8.80;;;4.43;;
75470;SDS011;64051;46.320;48.028;2022-11-06T07:21:15;8.82;;;4.18;;
75470;SDS011;64051;46.320;48.028;2022-11-06T07:23:41;9.05;;;4.78;;
75470;SDS011;64051;46.320;48.028;2022-11-06T07:26:07;7.80;;;4.03;;
75470;SDS011;64051;46.320;48.028;2022-11-06T07:28:36;8.75;;;3.70;;
75470;SDS011;64051;46.320;48.028;2022-11-06T07:31:03;8.73;;;4.03;;
75470;SDS011;64051;46.320;48.028;2022-11-06T07:33:33;9.00;;;4.10;;
75470;SDS011;64051;46.320;48.028;2022-11-06T07:36:18;8.60;;;4.10;;
75470;SDS011;64051;46.320;48.028;2022-11-06T07:38:44;7.93;;;3.55;;
75470;SDS011;64051;46.320;48.028;2022-11-06T07:41:11;8.15;;;3.65;;
75470;SDS011;64051;46.320;48.028;2022-11-06T07:43:39;8.57;;;4.13;;
75470;SDS011;64051;46.320;48.028;2022-11-06T07:46:10;7.55;;;3.20;;
75470;SDS011;64051;46.320;48.028;2022-11-06T07:48:37;7.07;;;3.28;;
75470;SDS011;64051;46.320;48.028;2022-11-06T07:51:05;7.35;;;3.58;;
75470;SDS011;64051;46.320;48.028;2022-11-06T07:53:35;7.43;;;3.65;;
75470;SDS011;64051;46.320;48.028;2022-11-06T07:56:02;8.18;;;3.75;;
75470;SDS011;64051;46.320;48.028;2022-11-06T07:58:28;6.60;;;3.10;;
75470;SDS011;64051;46.320;48.028;2022-11-06T08:00:55;7.65;;;3.30;;
75470;SDS011;64051;46.320;48.028;2022-11-06T08:03:24;8.50;;;3.45;;
75470;SDS011;64051;46.320;48.028;2022-11-06T08:05:50;7.97;;;3.28;;
75470;SDS011;64051;46.320;48.028;2022-11-06T08:08:19;8.20;;;4.00;;
75470;SDS011;64051;46.320;48.028;2022-11-06T08:10:45;7.40;;;3.60;;
75470;SDS011;64051;46.320;48.028;2022-11-06T08:13:13;6.57;;;3.25;;
75470;SDS011;64051;46.320;48.028;2022-11-06T08:15:40;8.63;;;4.47;;
75470;SDS011;64051;46.320;48.028;2022-11-06T08:18:07;8.75;;;4.07;;
75470;SDS011;64051;46.320;48.028;2022-11-06T08:20:34;6.80;;;3.80;;
75470;SDS011;64051;46.320;48.028;2022-11-06T08:23:04;9.57;;;4.07;;
75470;SDS011;64051;46.320;48.028;2022-11-06T08:25:33;8.70;;;4.15;;
75470;SDS011;64051;46.320;48.028;2022-11-06T08:28:00;7.88;;;3.88;;
75470;SDS011;64051;46.320;48.028;2022-11-06T08:30:29;8.85;;;4.22;;
75470;SDS011;64051;46.320;48.028;2022-11-06T08:33:00;8.40;;;4.07;;
75470;SDS011;64051;46.320;48.028;2022-11-06T08:35:32;7.50;;;3.47;;
75470;SDS011;64051;46.320;48.028;2022-11-06T08:37:59;8.35;;;3.80;;
75470;SDS011;64051;46.320;48.028;2022-11-06T08:40:25;8.20;;;3.85;;
75470;SDS011;64051;46.320;48.028;2022-11-06T08:42:58;10.27;;;3.65;;
75470;SDS011;64051;46.320;48.028;2022-11-06T08:45:25;7.20;;;3.83;;
75470;SDS011;64051;46.320;48.028;2022-11-06T08:47:51;7.95;;;3.63;;
75470;SDS011;64051;46.320;48.028;2022-11-06T08:50:17;7.15;;;3.20;;
75470;SDS011;64051;46.320;48.028;2022-11-06T08:52:46;8.77;;;4.38;;
75470;SDS011;64051;46.320;48.028;2022-11-06T08:55:15;7.82;;;3.63;;
75470;SDS011;64051;46.320;48.028;2022-11-06T08:57:41;7.15;;;3.60;;
75470;SDS011;64051;46.320;48.028;2022-11-06T09:00:07;9.82;;;4.10;;
75470;SDS011;64051;46.320;48.028;2022-11-06T09:02:39;8.63;;;3.47;;
75470;SDS011;64051;46.320;48.028;2022-11-06T09:05:09;9.02;;;3.60;;
75470;SDS011;64051;46.320;48.028;2022-11-06T09:07:35;7.75;;;3.80;;
75470;SDS011;64051;46.320;48.028;2022-11-06T09:10:07;7.13;;;3.38;;
75470;SDS011;64051;46.320;48.028;2022-11-06T09:12:35;8.57;;;3.55;;
75470;SDS011;64051;46.320;48.028;2022-11-06T09:15:01;7.88;;;3.60;;
75470;SDS011;64051;46.320;48.028;2022-11-06T09:17:31;6.72;;;3.65;;
75470;SDS011;64051;46.320;48.028;2022-11-06T09:19:57;8.18;;;3.72;;
75470;SDS011;64051;46.320;48.028;2022-11-06T09:22:23;7.90;;;3.67;;
75470;SDS011;64051;46.320;48.028;2022-11-06T09:24:54;8.05;;;3.90;;
75470;SDS011;64051;46.320;48.028;2022-11-06T09:27:20;8.13;;;3.65;;
75470;SDS011;64051;46.320;48.028;2022-11-06T09:29:46;8.45;;;3.78;;
75470;SDS011;64051;46.320;48.028;2022-11-06T09:32:13;8.25;;;3.78;;
75470;SDS011;64051;46.320;48.028;2022-11-06T09:34:48;7.50;;;3.78;;
75470;SDS011;64051;46.320;48.028;2022-11-06T09:37:14;5.70;;;2.97;;
75470;SDS011;64051;46.320;48.028;2022-11-06T09:39:50;7.88;;;3.30;;
75470;SDS011;64051;46.320;48.028;2022-11-06T09:45:37;10.45;;;3.80;;
75470;SDS011;64051;46.320;48.028;2022-11-06T09:50:37;7.03;;;3.40;;
75470;SDS011;64051;46.320;48.028;2022-11-06T09:53:12;7.00;;;3.25;;
75470;SDS011;64051;46.320;48.028;2022-11-06T09:55:55;8.55;;;3.88;;
75470;SDS011;64051;46.320;48.028;2022-11-06T09:58:26;8.57;;;3.60;;
75470;SDS011;64051;46.320;48.028;2022-11-06T10:01:20;9.02;;;3.90;;
75470;SDS011;64051;46.320;48.028;2022-11-06T10:03:53;7.25;;;3.53;;
75470;SDS011;64051;46.320;48.028;2022-11-06T10:06:23;7.93;;;3.70;;
75470;SDS011;64051;46.320;48.028;2022-11-06T10:08:52;8.00;;;3.67;;
75470;SDS011;64051;46.320;48.028;2022-11-06T10:22:20;6.60;;;2.60;;
75470;SDS011;64051;46.320;48.028;2022-11-06T10:25:35;5.55;;;2.78;;
75470;SDS011;64051;46.320;48.028;2022-11-06T10:34:22;6.15;;;2.40;;
75470;SDS011;64051;46.320;48.028;2022-11-06T10:37:05;5.63;;;2.50;;
75470;SDS011;64051;46.320;48.028;2022-11-06T10:39:40;8.90;;;3.47;;
75470;SDS011;64051;46.320;48.028;2022-11-06T10:42:12;5.65;;;2.58;;
75470;SDS011;64051;46.320;48.028;2022-11-06T10:44:54;6.00;;;2.70;;
75470;SDS011;64051;46.320;48.028;2022-11-06T10:48:09;7.55;;;3.33;;
75470;SDS011;64051;46.320;48.028;2022-11-06T10:50:18;6.45;;;3.00;;
75470;SDS011;64051;46.320;48.028;2022-11-06T10:56:01;7.88;;;3.40;;
75470;SDS011;64051;46.320;48.028;2022-11-06T10:58:41;9.90;;;3.30;;
75470;SDS011;64051;46.320;48.028;2022-11-06T11:01:16;7.93;;;3.00;;
75470;SDS011;64051;46.320;48.028;2022-11-06T11:03:45;7.90;;;3.42;;
75470;SDS011;64051;46.320;48.028;2022-11-06T11:06:16;7.68;;;3.40;;
75470;SDS011;64051;46.320;48.028;2022-11-06T11:08:44;7.10;;;3.17;;
75470;SDS011;64051;46.320;48.028;2022-11-06T11:16:43;6.20;;;3.00;;
75470;SDS011;64051;46.320;48.028;2022-11-06T11:19:14;5.95;;;2.72;;
75470;SDS011;64051;46.320;48.028;2022-11-06T11:21:56;7.78;;;3.55;;
75470;SDS011;64051;46.320;48.028;2022-11-06T11:24:29;7.85;;;3.50;;
75470;SDS011;64051;46.320;48.028;2022-11-06T11:27:00;8.20;;;3.72;;
75470;SDS011;64051;46.320;48.028;2022-11-06T11:29:46;8.30;;;2.65;;
75470;SDS011;64051;46.320;48.028;2022-11-06T11:32:15;8.57;;;3.65;;
75470;SDS011;64051;46.320;48.028;2022-11-06T11:34:50;7.03;;;3.13;;
75470;SDS011;64051;46.320;48.028;2022-11-06T11:37:26;8.23;;;3.75;;
75470;SDS011;64051;46.320;48.028;2022-11-06T11:42:54;7.03;;;3.33;;
75470;SDS011;64051;46.320;48.028;2022-11-06T11:51:27;8.43;;;3.33;;
75470;SDS011;64051;46.320;48.028;2022-11-06T11:59:50;7.00;;;3.17;;
75470;SDS011;64051;46.320;48.028;2022-11-06T12:02:17;8.50;;;3.88;;
75470;SDS011;64051;46.320;48.028;2022-11-06T12:05:15;7.72;;;3.60;;
75470;SDS011;64051;46.320;48.028;2022-11-06T12:07:53;9.00;;;3.65;;
75470;SDS011;64051;46.320;48.028;2022-11-06T12:10:28;9.38;;;4.57;;
75470;SDS011;64051;46.320;48.028;2022-11-06T12:13:03;8.82;;;3.88;;
75470;SDS011;64051;46.320;48.028;2022-11-06T12:18:19;8.57;;;3.78;;
75470;SDS011;64051;46.320;48.028;2022-11-06T12:26:11;9.10;;;4.40;;
75470;SDS011;64051;46.320;48.028;2022-11-06T12:28:48;7.88;;;3.13;;
75470;SDS011;64051;46.320;48.028;2022-11-06T12:31:25;7.80;;;3.22;;
75470;SDS011;64051;46.320;48.028;2022-11-06T12:34:20;7.00;;;2.92;;
75470;SDS011;64051;46.320;48.028;2022-11-06T12:37:17;8.20;;;3.10;;
75470;SDS011;64051;46.320;48.028;2022-11-06T12:39:52;7.82;;;3.45;;
75470;SDS011;64051;46.320;48.028;2022-11-06T12:42:29;7.20;;;3.20;;
75470;SDS011;64051;46.320;48.028;2022-11-06T12:45:09;6.95;;;3.40;;
75470;SDS011;64051;46.320;48.028;2022-11-06T12:48:03;7.32;;;3.25;;
75470;SDS011;64051;46.320;48.028;2022-11-06T12:53:23;6.28;;;3.03;;
75470;SDS011;64051;46.320;48.028;2022-11-06T12:56:21;7.47;;;3.33;;
75470;SDS011;64051;46.320;48.028;2022-11-06T12:59:00;9.20;;;3.28;;
75470;SDS011;64051;46.320;48.028;2022-11-06T13:10:39;7.82;;;3.53;;
75470;SDS011;64051;46.320;48.028;2022-11-06T13:16:15;7.30;;;3.20;;
75470;SDS011;64051;46.320;48.028;2022-11-06T13:18:55;7.93;;;3.50;;
75470;SDS011;64051;46.320;48.028;2022-11-06T13:27:00;7.93;;;3.50;;
75470;SDS011;64051;46.320;48.028;2022-11-06T13:29:48;7.43;;;3.58;;
75470;SDS011;64051;46.320;48.028;2022-11-06T13:32:34;10.18;;;3.92;;
75470;SDS011;64051;46.320;48.028;2022-11-06T13:35:02;10.63;;;4.20;;
75470;SDS011;64051;46.320;48.028;2022-11-06T13:37:40;8.57;;;3.85;;
75470;SDS011;64051;46.320;48.028;2022-11-06T13:45:42;9.35;;;3.78;;
75470;SDS011;64051;46.320;48.028;2022-11-06T13:57:07;7.60;;;3.38;;
75470;SDS011;64051;46.320;48.028;2022-11-06T14:02:34;8.07;;;4.10;;
75470;SDS011;64051;46.320;48.028;2022-11-06T14:11:02;8.48;;;3.53;;
75470;SDS011;64051;46.320;48.028;2022-11-06T14:13:38;7.03;;;3.40;;
75470;SDS011;64051;46.320;48.028;2022-11-06T14:19:04;8.80;;;3.42;;
75470;SDS011;64051;46.320;48.028;2022-11-06T14:24:40;6.95;;;3.30;;
75470;SDS011;64051;46.320;48.028;2022-11-06T14:29:54;6.85;;;3.47;;
75470;SDS011;64051;46.320;48.028;2022-11-06T14:40:39;7.55;;;3.35;;
75470;SDS011;64051;46.320;48.028;2022-11-06T14:45:54;8.13;;;3.70;;
75470;SDS011;64051;46.320;48.028;2022-11-06T14:48:56;8.02;;;3.42;;
75470;SDS011;64051;46.320;48.028;2022-11-06T14:51:37;7.53;;;3.08;;
75470;SDS011;64051;46.320;48.028;2022-11-06T14:54:04;10.50;;;4.00;;
75470;SDS011;64051;46.320;48.028;2022-11-06T14:56:52;9.77;;;4.28;;
75470;SDS011;64051;46.320;48.028;2022-11-06T14:59:20;7.55;;;3.10;;
75470;SDS011;64051;46.320;48.028;2022-11-06T15:05:02;10.68;;;3.92;;
75470;SDS011;64051;46.320;48.028;2022-11-06T15:07:50;6.53;;;2.85;;
75470;SDS011;64051;46.320;48.028;2022-11-06T15:13:35;8.57;;;3.80;;
75470;SDS011;64051;46.320;48.028;2022-11-06T15:16:05;7.85;;;3.58;;
75470;SDS011;64051;46.320;48.028;2022-11-06T15:21:08;9.38;;;4.13;;
75470;SDS011;64051;46.320;48.028;2022-11-06T15:23:53;7.78;;;3.63;;
75470;SDS011;64051;46.320;48.028;2022-11-06T15:26:32;8.95;;;4.05;;
75470;SDS011;64051;46.320;48.028;2022-11-06T15:29:12;6.68;;;3.20;;
75470;SDS011;64051;46.320;48.028;2022-11-06T15:32:04;8.77;;;3.97;;
75470;SDS011;64051;46.320;48.028;2022-11-06T15:34:40;8.48;;;4.07;;
75470;SDS011;64051;46.320;48.028;2022-11-06T15:39:51;8.57;;;3.65;;
75470;SDS011;64051;46.320;48.028;2022-11-06T15:42:25;7.45;;;3.53;;
75470;SDS011;64051;46.320;48.028;2022-11-06T15:47:55;8.23;;;3.08;;
75470;SDS011;64051;46.320;48.028;2022-11-06T15:50:36;7.93;;;3.67;;
75470;SDS011;64051;46.320;48.028;2022-11-06T15:55:44;7.70;;;4.00;;
75470;SDS011;64051;46.320;48.028;2022-11-06T15:58:28;9.65;;;3.80;;
75470;SDS011;64051;46.320;48.028;2022-11-06T16:01:02;9.13;;;4.00;;
75470;SDS011;64051;46.320;48.028;2022-11-06T16:18:53;8.70;;;3.75;;
75470;SDS011;64051;46.320;48.028;2022-11-06T16:21:23;9.55;;;4.10;;
75470;SDS011;64051;46.320;48.028;2022-11-06T18:01:53;6.00;;;2.50;;
75470;SDS011;64051;46.320;48.028;2022-11-06T18:34:13;7.78;;;3.20;;
75470;SDS011;64051;46.320;48.028;2022-11-06T18:36:40;6.75;;;3.05;;
75470;SDS011;64051;46.320;48.028;2022-11-06T18:39:09;7.72;;;3.35;;
75470;SDS011;64051;46.320;48.028;2022-11-06T18:41:36;7.53;;;3.20;;
75470;SDS011;64051;46.320;48.028;2022-11-06T18:44:02;7.15;;;2.78;;
75470;SDS011;64051;46.320;48.028;2022-11-06T18:46:31;6.70;;;2.80;;
75470;SDS011;64051;46.320;48.028;2022-11-06T18:48:59;7.60;;;3.30;;
75470;SDS011;64051;46.320;48.028;2022-11-06T18:51:29;6.40;;;2.97;;
75470;SDS011;64051;46.320;48.028;2022-11-06T18:54:00;7.85;;;3.08;;
75470;SDS011;64051;46.320;48.028;2022-11-06T18:56:31;8.15;;;3.50;;
75470;SDS011;64051;46.320;48.028;2022-11-06T18:59:00;8.77;;;3.35;;
75470;SDS011;64051;46.320;48.028;2022-11-06T19:01:26;7.75;;;3.22;;
75470;SDS011;64051;46.320;48.028;2022-11-06T19:03:54;11.52;;;3.78;;
75470;SDS011;64051;46.320;48.028;2022-11-06T19:06:25;8.30;;;3.47;;
75470;SDS011;64051;46.320;48.028;2022-11-06T19:08:51;7.18;;;3.00;;
75470;SDS011;64051;46.320;48.028;2022-11-06T19:11:18;8.40;;;3.63;;
